Text Box: All records at near 07:00 local time
Kleivo 1 weather for Jun 2009
Month no. 31
Obs.
Da.
Temp. Dew Point Precip. Wind
Speed
Wind gusts Cloud cover Press. Humidity Wind dir. Sunny OPT
01.06.2009 7,3 5,8 0,0 1,9 0,0 10 1009,7 90,0 22,5 1 85,0 %
02.06.2009 9,9 6,1 0,0 9,3 9,3 10 1004,6 77,0 225,0 1 82,5 %
03.06.2009 7,9 3,3 0,0 3,7 3,7 8 999,2 73,0 22,5 1 80,0 %
04.06.2009 8,4 3,4 0,0 9,3 9,3 10 994,1 71,0 45,0 1 82,5 %
05.06.2009 6,9 4,9 0,0 1,9 1,9 8 990,1 87,0 67,5 1 80,0 %
06.06.2009 7,8 6,7 0,0 0,0 0,0 8 990,4 93,0 112,5 1 82,5 %
07.06.2009 7,8 4,9 0,0 3,7 3,7 8 989,4 82,0 157,5 1 80,0 %
08.06.2009 6,3 5,1 0,0 5,6 5,6 3 991,8 92,0 0,0 1 65,0 %
09.06.2009 10,3 6,4 0,0 9,3 9,3 1 993,5 77,0 180,0   62,5 %
10.06.2009 10,4 7,8 0,0 0,0 0,0 1 991,1 84,0 247,5   67,5 %
11.06.2009 9,6 5,9 0,0 1,9 1,9 8 992,1 65,0 315,0 1 82,5 %
12.06.2009 10,5 8,2 0,0 0,0 0,0 10 992,5 82,0 157,5 1 90,0 %
13.06.2009 10,8 8,6 0,0 0,0 0,0 3 997,9 86,0 225,0 1 72,5 %
14.06.2009 8,5 7,4 0,0 1,9 1,9 3 997,2 93,0 0,0 1 70,0 %
15.06.2009 9,9 6,2 0,0 8,2 8,2 8 994,5 78,0 337,5 1 77,5 %
16.06.2009 8,4 6,6 0,0 13,0 13,0 8 994,8 45,0 0,0 1 75,0 %
17.06.2009 8,8 5,5 0,0 18,5 18,5 9 999,9 47,0 180,0 1 72,5 %
18.06.2009 9,4 8,5 4,1 3,7 3,7 1 984,0 94,0 337,5   60,0 %
19.06.2009 10,6 9,6 0,0 0,0 3,7 3 984,1 93,0 135,0 1 72,5 %
20.06.2009 9,8 8,6 0,0 1,6 1,6 7 1010,0 92,0 135,0 1 80,0 %
21.06.2009 11,1 8,6 0,0 3,2 3,2 8 1017,8 85,0 0,0 1 85,0 %
22.06.2009 10,2 9,2 0,0 0,0 1,0 6 1023,0 94,0 180,0 1 80,0 %
23.06.2009 12,6 9,7 0,0 0,0 0,0 0 1028,4 83,0 270,0 1 67,5 %
24.06.2009 12,3 11,1 0,0 0,0 0,0 10 1027,0 92,0 225,0 1 90,0 %
25.06.2009 16,4 13,2 0,0 3,2 3,2 10 1024,6 81,0 0,0 1 95,0 %
26.06.2009 17,4 11,7 0,0 8,0 8,0 4 1023,9 69,0 22,5 1 75,0 %
27.06.2009 24,3 10,6 0,0 3,2 4,8 10 1022,9 42,0 202,5 1 100,0 %
28.06.2009 17,8 14,5 0,0 6,4 6,4 8 1020,9 81,0 22,5 1 90,0 %
29.06.2009 19,9 14,5 0,0 1,6 1,6 8 1018,5 71,0 22,5 1 92,5 %
30.06.2009 17,8 15,4 0,0 3,2 3,2 1 1019,9 86,0 180,0   75,0 %
                       
Avrg/Sum 11,3 8,3 4,1 4,1 4,2 6,4 1004,3 79,5 134,3 26 79,0 %